This is the latest recevied weather packets stored in our database for station/object DB0RV-13. If no packets are shown the sender has not sent any weather packets the latest 10 day(s).
| Time | Temp. | Humidity | Pressure | Rain* | Wind** | Luminosity | Snow |
|---|---|---|---|---|---|---|---|
| 1777839303 | 13.89° C | 54% | 1014.1 hPa | - | - | - | - |
| 1777839002 | 14.44° C | 53% | 1014.1 hPa | - | - | - | - |
| 1777838703 | 14.44° C | 53% | 1014.1 hPa | - | - | - | - |
| 1777838403 | 14.44° C | 54% | 1014 hPa | - | - | - | - |
| 1777838102 | 15° C | 52% | 1014 hPa | - | - | - | - |
| 1777837802 | 15° C | 50% | 1013.9 hPa | - | - | - | - |
| 1777837502 | 15.56° C | 46% | 1013.8 hPa | - | - | - | - |
| 1777837202 | 16.11° C | 43% | 1013.7 hPa | - | - | - | - |
| 1777836902 | 16.11° C | 44% | 1013.6 hPa | - | - | - | - |
| 1777836604 | 16.67° C | 42% | 1013.4 hPa | - | - | - | - |
| 1777836304 | 16.67° C | 41% | 1013.2 hPa | - | - | - | - |
| 1777836002 | 17.22° C | 40% | 1013 hPa | - | - | - | - |
| 1777835702 | 17.22° C | 40% | 1012.7 hPa | - | - | - | - |
| 1777835402 | 17.22° C | 39% | 1012.6 hPa | - | - | - | - |
| 1777835102 | 17.78° C | 40% | 1012.9 hPa | - | - | - | - |
| 1777834803 | 17.78° C | 41% | 1012.8 hPa | - | - | - | - |
| 1777834502 | 17.78° C | 43% | 1012.9 hPa | - | - | - | - |
| 1777834202 | 17.22° C | 45% | 1013.2 hPa | - | - | - | - |
| 1777833902 | 16.67° C | 48% | 1013.3 hPa | - | - | - | - |
| 1777833602 | 16.67° C | 50% | 1013.1 hPa | - | - | - | - |
| 1777833302 | 16.11° C | 51% | 1012.8 hPa | - | - | - | - |
| 1777833001 | 16.67° C | 51% | 1012.8 hPa | - | - | - | - |
| 1777832702 | 16.67° C | 53% | 1012.8 hPa | - | - | - | - |
| 1777832401 | 16.67° C | 52% | 1012.7 hPa | - | - | - | - |
| 1777832102 | 17.22° C | 51% | 1012.6 hPa | - | - | - | - |
* Rain since midnight (hover to see other rain measurements)
** Current wind speed in m/s (hover to see current wind gust speed)